Time;durP1;ratioP1;P1;durP2;ratioP2;P2;SDS_P1;SDS_P2;PMS_P1;PMS_P2;Temp;Humidity;BMP_temperature;BMP_pressure;BME280_temperature;BME280_humidity;BME280_pressure;Samples;Min_cycle;Max_cycle;Signal;HPM_P1;HPM_P2
2023/04/12 03:01:25;;;;;;;9.10;8.40;;;7.30;99.90;;;;;;5439934;23;20290;-73
2023/04/12 03:03:51;;;;;;;9.97;9.20;;;7.30;99.90;;;;;;4932974;29;20218;-73
2023/04/12 03:06:17;;;;;;;9.50;8.80;;;7.40;99.90;;;;;;4933967;29;20201;-73
2023/04/12 03:08:43;;;;;;;8.63;7.93;;;7.40;99.90;;;;;;4924602;29;20726;-73
2023/04/12 03:11:09;;;;;;;9.00;8.07;;;7.40;99.90;;;;;;4916986;29;20203;-73
2023/04/12 03:13:35;;;;;;;8.90;8.07;;;7.40;99.90;;;;;;4915360;29;20283;-73
2023/04/12 03:16:20;;;;;;;9.30;8.40;;;7.40;99.90;;;;;;4909906;29;20187;-73
2023/04/12 03:18:46;;;;;;;8.53;7.97;;;7.40;99.90;;;;;;4898953;29;20192;-73
2023/04/12 03:21:11;;;;;;;8.90;8.13;;;7.40;99.90;;;;;;4883473;29;20259;-73
2023/04/12 03:23:37;;;;;;;10.77;10.20;;;7.40;99.90;;;;;;4884336;29;20223;-73
2023/04/12 03:26:03;;;;;;;15.37;14.27;;;7.40;99.90;;;;;;4900498;29;20187;-73
2023/04/12 03:28:29;;;;;;;15.13;13.70;;;7.40;99.90;;;;;;4881509;29;20206;-73
2023/04/12 03:30:55;;;;;;;17.17;15.77;;;7.40;99.90;;;;;;4920976;29;20288;-70
2023/04/12 03:33:21;;;;;;;15.00;13.87;;;7.30;99.90;;;;;;4918393;29;20186;-70
2023/04/12 03:35:47;;;;;;;14.67;13.77;;;7.30;99.90;;;;;;4916364;29;20179;-70
2023/04/12 03:38:12;;;;;;;19.93;18.43;;;7.30;99.90;;;;;;4916728;29;20214;-70
2023/04/12 03:40:38;;;;;;;19.90;18.10;;;7.30;99.90;;;;;;4916508;29;20215;-69
2023/04/12 03:43:04;;;;;;;21.13;19.63;;;7.30;99.90;;;;;;4910936;29;20552;-69
2023/04/12 03:45:30;;;;;;;20.17;18.50;;;7.30;99.90;;;;;;4909085;29;20187;-70
2023/04/12 03:47:55;;;;;;;22.13;20.97;;;7.30;99.90;;;;;;4899054;29;20184;-70
2023/04/12 03:50:21;;;;;;;23.07;21.27;;;7.40;99.90;;;;;;4880889;29;20290;-70
2023/04/12 03:52:47;;;;;;;21.43;19.80;;;7.40;99.90;;;;;;4881340;29;20195;-70
2023/04/12 03:55:16;;;;;;;21.47;20.37;;;7.40;99.90;;;;;;4899998;29;20731;-70
2023/04/12 03:57:42;;;;;;;19.47;18.13;;;7.30;99.90;;;;;;4898232;29;20569;-69
2023/04/12 04:00:09;;;;;;;19.50;17.77;;;7.30;99.90;;;;;;4915132;29;20191;-71
2023/04/12 04:02:35;;;;;;;21.63;19.73;;;7.30;99.90;;;;;;4899767;29;20223;-71
2023/04/12 04:05:02;;;;;;;13.83;11.53;;;7.30;99.90;;;;;;4899545;29;20267;-71
2023/04/12 04:07:28;;;;;;;16.57;15.47;;;7.20;99.90;;;;;;4917295;29;20195;-72
2023/04/12 04:09:54;;;;;;;14.80;13.33;;;7.20;99.90;;;;;;4899835;29;20182;-72
2023/04/12 04:12:20;;;;;;;13.67;12.57;;;7.20;99.90;;;;;;4917200;29;20293;-72
2023/04/12 04:14:46;;;;;;;12.70;11.63;;;7.20;99.90;;;;;;4900097;29;20376;-72
2023/04/12 04:17:12;;;;;;;13.47;12.47;;;7.20;99.90;;;;;;4900088;29;20195;-72
2023/04/12 04:19:37;;;;;;;12.87;11.77;;;7.20;99.90;;;;;;4917173;29;20198;-72
2023/04/12 04:22:03;;;;;;;12.37;11.13;;;7.20;99.90;;;;;;4900086;29;20790;-72
2023/04/12 04:24:29;;;;;;;10.47;9.40;;;7.30;99.90;;;;;;4899544;29;20242;-72
2023/04/12 04:26:55;;;;;;;9.57;7.80;;;7.30;99.90;;;;;;4898737;29;20290;-73
2023/04/12 04:29:20;;;;;;;11.67;10.80;;;7.30;99.90;;;;;;4911684;29;20291;-71
2023/04/12 04:31:47;;;;;;;10.80;9.87;;;7.30;99.90;;;;;;4902268;29;20208;-71
2023/04/12 04:34:13;;;;;;;12.17;11.23;;;7.30;99.90;;;;;;4896152;29;20235;-70
2023/04/12 04:36:40;;;;;;;9.63;9.03;;;7.20;99.90;;;;;;4919110;29;20186;-71
2023/04/12 04:39:06;;;;;;;8.40;7.83;;;7.30;99.90;;;;;;4917966;29;20186;-72
2023/04/12 04:41:38;;;;;;;8.50;7.83;;;7.30;99.90;;;;;;4917676;29;20226;-71
2023/04/12 04:44:08;;;;;;;9.17;8.30;;;7.30;99.90;;;;;;4934573;29;20222;-71
2023/04/12 04:46:38;;;;;;;9.30;8.60;;;7.40;99.90;;;;;;4917967;29;20187;-72
2023/04/12 04:49:04;;;;;;;6.97;6.40;;;7.30;99.90;;;;;;4905170;29;20215;-73
2023/04/12 04:51:30;;;;;;;10.23;7.37;;;7.30;99.90;;;;;;4915575;29;20194;-70
2023/04/12 04:53:57;;;;;;;36.87;34.97;;;7.30;99.90;;;;;;4916126;29;20190;-73
2023/04/12 04:56:23;;;;;;;23.40;22.10;;;7.20;99.90;;;;;;4915715;29;20183;-69
2023/04/12 04:58:49;;;;;;;30.90;28.90;;;7.20;99.90;;;;;;4898891;29;20278;-68
2023/04/12 05:01:15;;;;;;;13.93;13.03;;;7.30;99.90;;;;;;4898442;29;20218;-69
2023/04/12 05:03:44;;;;;;;16.27;15.30;;;7.30;99.90;;;;;;4898967;29;20218;-71
2023/04/12 05:06:12;;;;;;;24.20;22.40;;;7.30;99.90;;;;;;4898791;29;20214;-71
2023/04/12 05:08:38;;;;;;;25.40;23.17;;;7.30;99.90;;;;;;4915544;29;20179;-72
2023/04/12 05:11:04;;;;;;;25.60;24.03;;;7.40;99.90;;;;;;4915766;29;20206;-70
2023/04/12 05:13:30;;;;;;;39.77;37.37;;;7.40;99.90;;;;;;4915592;29;20651;-70
2023/04/12 05:15:55;;;;;;;38.30;36.30;;;7.40;99.90;;;;;;4898501;29;20261;-70
2023/04/12 05:18:21;;;;;;;35.10;33.13;;;7.40;99.90;;;;;;4925425;29;20718;-69
2023/04/12 05:20:47;;;;;;;23.83;22.63;;;7.40;99.90;;;;;;4934883;29;20802;-69
2023/04/12 05:23:14;;;;;;;29.73;27.53;;;7.40;99.90;;;;;;4918428;29;20190;-69
2023/04/12 05:25:48;;;;;;;28.67;26.57;;;7.40;99.90;;;;;;4904309;29;20270;-69
2023/04/12 05:28:16;;;;;;;10.37;9.40;;;7.40;99.90;;;;;;4898832;29;20242;-70
2023/04/12 05:30:43;;;;;;;8.50;7.90;;;7.50;99.90;;;;;;4914950;29;20591;-71
2023/04/12 05:33:09;;;;;;;19.07;17.97;;;7.50;99.90;;;;;;4898779;29;20282;-71
2023/04/12 05:35:35;;;;;;;21.63;20.17;;;7.50;99.90;;;;;;4915274;29;20270;-71
2023/04/12 05:38:01;;;;;;;15.23;14.23;;;7.50;99.90;;;;;;4915216;29;20183;-71
2023/04/12 05:40:26;;;;;;;19.43;18.13;;;7.60;99.90;;;;;;4914595;29;20190;-72
2023/04/12 05:42:53;;;;;;;17.37;16.33;;;7.50;99.90;;;;;;4898450;29;20187;-71
2023/04/12 05:45:18;;;;;;;15.37;14.23;;;7.50;99.90;;;;;;4915264;29;20210;-70
2023/04/12 05:47:44;;;;;;;19.03;17.83;;;7.60;99.90;;;;;;4915440;29;20186;-73
2023/04/12 05:50:10;;;;;;;21.57;20.37;;;7.50;99.90;;;;;;4915917;29;20242;-71
2023/04/12 05:52:36;;;;;;;19.37;18.20;;;7.50;99.90;;;;;;4899197;29;20226;-76
2023/04/12 05:55:02;;;;;;;16.10;15.10;;;7.50;99.90;;;;;;4915362;29;20274;-72
2023/04/12 05:57:28;;;;;;;11.20;10.10;;;7.50;99.90;;;;;;4915135;29;20558;-72
2023/04/12 05:59:53;;;;;;;11.00;10.13;;;7.50;99.90;;;;;;4915084;29;20199;-72
2023/04/12 06:02:19;;;;;;;11.03;9.97;;;7.50;99.90;;;;;;4897995;29;20222;-71
2023/04/12 06:04:46;;;;;;;34.93;32.33;;;7.50;99.90;;;;;;4914641;29;20215;-72
2023/04/12 06:07:12;;;;;;;24.47;23.07;;;7.50;99.90;;;;;;4898462;29;20190;-74
2023/04/12 06:09:38;;;;;;;76.23;72.13;;;7.50;99.90;;;;;;4913619;29;20281;-73
2023/04/12 06:12:04;;;;;;;87.43;82.80;;;7.50;99.90;;;;;;4897466;29;20604;-74
2023/04/12 06:14:29;;;;;;;19.90;18.63;;;7.50;99.90;;;;;;4914654;29;20199;-72
2023/04/12 06:16:55;;;;;;;17.93;16.57;;;7.50;99.90;;;;;;4914920;29;20338;-72
2023/04/12 06:19:21;;;;;;;10.77;9.77;;;7.50;99.90;;;;;;4914752;29;20270;-72
2023/04/12 06:21:47;;;;;;;12.73;11.87;;;7.50;99.90;;;;;;4915258;29;20585;-72
2023/04/12 06:24:12;;;;;;;80.90;76.80;;;7.50;99.90;;;;;;4914688;29;20207;-73
2023/04/12 06:26:38;;;;;;;37.03;34.80;;;7.50;99.90;;;;;;4914381;29;20190;-73
2023/04/12 06:29:04;;;;;;;13.00;12.07;;;7.60;99.90;;;;;;4897453;29;20612;-73
2023/04/12 06:31:30;;;;;;;28.50;26.93;;;7.70;99.90;;;;;;4897989;29;20698;-73
2023/04/12 06:33:56;;;;;;;150.17;142.30;;;7.70;99.90;;;;;;4914687;29;20183;-72
2023/04/12 06:36:21;;;;;;;101.87;96.77;;;7.70;99.90;;;;;;4897616;29;20195;-72
2023/04/12 06:38:49;;;;;;;14.73;13.73;;;7.70;99.90;;;;;;4897658;29;20195;-72
2023/04/12 06:41:15;;;;;;;134.27;127.60;;;7.70;99.90;;;;;;4914834;29;20241;-72
2023/04/12 06:43:41;;;;;;;21.87;20.23;;;7.80;99.90;;;;;;4915085;29;20646;-72
2023/04/12 06:46:07;;;;;;;139.37;132.23;;;7.70;99.90;;;;;;4898635;29;20282;-73
2023/04/12 06:48:34;;;;;;;19.73;18.40;;;7.80;99.90;;;;;;4922287;29;20190;-74
2023/04/12 06:51:00;;;;;;;22.13;20.90;;;7.80;99.90;;;;;;4906128;29;20262;-73
2023/04/12 06:53:26;;;;;;;28.57;26.93;;;7.80;99.90;;;;;;4924222;29;20202;-74
2023/04/12 06:55:52;;;;;;;26.27;24.60;;;8.00;99.90;;;;;;4903009;29;20214;-73
2023/04/12 06:58:18;;;;;;;9.53;8.73;;;8.00;99.90;;;;;;4920993;29;20195;-74
2023/04/12 07:00:44;;;;;;;8.33;7.70;;;8.10;99.90;;;;;;4919428;29;20277;-74
2023/04/12 07:03:10;;;;;;;19.87;18.47;;;8.10;99.90;;;;;;4902653;29;20590;-74
2023/04/12 07:05:39;;;;;;;19.80;18.33;;;8.10;99.90;;;;;;4902771;29;20266;-73
2023/04/12 07:08:05;;;;;;;11.73;10.93;;;8.20;99.90;;;;;;4920420;29;20187;-73
2023/04/12 07:10:31;;;;;;;7.60;7.10;;;8.20;99.90;;;;;;4920156;29;20222;-72
2023/04/12 07:13:01;;;;;;;7.47;6.77;;;8.10;99.90;;;;;;4918614;29;20179;-72
2023/04/12 07:15:27;;;;;;;8.90;8.10;;;8.20;99.90;;;;;;4918129;29;20644;-72
2023/04/12 07:17:53;;;;;;;9.07;8.17;;;8.30;99.90;;;;;;4918325;29;20498;-72
2023/04/12 07:20:19;;;;;;;7.27;6.60;;;8.20;99.90;;;;;;4917758;29;20195;-72
2023/04/12 07:22:44;;;;;;;7.50;6.90;;;8.20;99.90;;;;;;4918336;29;20194;-73
2023/04/12 07:25:10;;;;;;;7.63;7.03;;;8.30;99.90;;;;;;4901252;29;20266;-73
2023/04/12 07:27:36;;;;;;;8.93;8.03;;;8.30;99.90;;;;;;4918267;29;20222;-72
2023/04/12 07:30:02;;;;;;;8.07;7.17;;;8.40;99.90;;;;;;4917602;29;20191;-72
2023/04/12 07:32:28;;;;;;;8.33;7.63;;;8.50;99.90;;;;;;4901082;29;20199;-72
2023/04/12 07:34:54;;;;;;;8.00;7.30;;;8.60;99.90;;;;;;4901124;29;20191;-72
2023/04/12 07:37:19;;;;;;;8.77;8.07;;;8.60;99.90;;;;;;4918194;29;20211;-73
2023/04/12 07:39:45;;;;;;;11.00;10.30;;;8.60;99.90;;;;;;4920708;29;20220;-73
2023/04/12 07:42:11;;;;;;;12.20;11.30;;;8.60;99.90;;;;;;4920083;29;20199;-73
2023/04/12 07:44:37;;;;;;;13.20;12.30;;;8.60;99.90;;;;;;4918517;29;20225;-73
2023/04/12 07:47:02;;;;;;;10.57;9.90;;;8.70;99.90;;;;;;4917611;29;20175;-73
2023/04/12 07:49:28;;;;;;;13.17;12.17;;;8.70;99.90;;;;;;4900489;29;20194;-73
2023/04/12 07:51:54;;;;;;;9.73;8.93;;;8.70;99.90;;;;;;4900577;29;20206;-73
2023/04/12 07:54:20;;;;;;;9.40;8.70;;;8.60;99.90;;;;;;4917420;29;20183;-72
2023/04/12 07:57:02;;;;;;;11.30;10.30;;;8.70;99.90;;;;;;4900823;29;20551;-72
2023/04/12 07:59:29;;;;;;;9.77;8.93;;;8.70;99.90;;;;;;4917411;29;20252;-73
2023/04/12 08:01:55;;;;;;;10.40;9.70;;;8.70;99.90;;;;;;4900138;29;20226;-73
2023/04/12 08:04:21;;;;;;;8.90;8.30;;;8.70;99.90;;;;;;4917605;29;20219;-73
2023/04/12 08:06:47;;;;;;;8.90;8.40;;;8.70;99.90;;;;;;4900399;29;20175;-73
2023/04/12 08:09:13;;;;;;;8.97;8.10;;;8.70;99.90;;;;;;4916748;29;20184;-72
2023/04/12 08:11:38;;;;;;;9.33;8.83;;;8.70;99.90;;;;;;4900235;29;20198;-71
2023/04/12 08:14:04;;;;;;;9.33;8.77;;;8.80;99.90;;;;;;4917217;29;20197;-72
2023/04/12 08:16:31;;;;;;;10.33;9.77;;;8.90;99.90;;;;;;4918261;29;20772;-72
2023/04/12 08:18:57;;;;;;;10.63;9.93;;;8.90;99.90;;;;;;4900447;29;20245;-73
2023/04/12 08:21:22;;;;;;;10.40;9.70;;;8.90;99.90;;;;;;4900563;29;20614;-73
2023/04/12 08:23:49;;;;;;;6.43;6.00;;;8.90;99.90;;;;;;4920350;29;20217;-73
2023/04/12 08:26:15;;;;;;;7.47;6.87;;;8.90;99.90;;;;;;4902331;29;20183;-73
2023/04/12 08:28:41;;;;;;;7.40;6.90;;;9.00;99.90;;;;;;4919352;29;20278;-73
2023/04/12 08:31:07;;;;;;;9.10;8.40;;;9.00;99.90;;;;;;4900794;29;20199;-73
2023/04/12 08:33:33;;;;;;;8.70;8.00;;;9.10;99.90;;;;;;4917255;29;20191;-73
2023/04/12 08:35:59;;;;;;;8.87;8.37;;;9.20;99.90;;;;;;4916659;29;20179;-73
2023/04/12 08:38:25;;;;;;;6.93;6.53;;;9.30;99.90;;;;;;4916283;29;20673;-73
2023/04/12 08:40:51;;;;;;;8.20;7.60;;;9.30;99.90;;;;;;4916558;29;20199;-73
2023/04/12 08:43:21;;;;;;;12.87;11.73;;;9.30;99.90;;;;;;4916796;29;20192;-73
2023/04/12 08:45:48;;;;;;;6.80;6.40;;;9.40;99.90;;;;;;4916597;29;20648;-73
2023/04/12 08:48:16;;;;;;;8.77;8.00;;;9.40;99.90;;;;;;4916401;29;20210;-73
2023/04/12 08:50:43;;;;;;;8.47;7.77;;;9.40;99.90;;;;;;4899483;29;20211;-73
2023/04/12 08:53:09;;;;;;;10.80;9.63;;;9.40;99.90;;;;;;4916325;29;20631;-73
2023/04/12 08:55:35;;;;;;;7.77;7.27;;;9.50;99.90;;;;;;4899422;29;20651;-70
2023/04/12 08:58:06;;;;;;;7.27;6.67;;;9.60;99.90;;;;;;4899662;29;20186;-73
2023/04/12 09:00:33;;;;;;;10.70;9.80;;;9.70;99.90;;;;;;4915745;29;20218;-73
2023/04/12 09:02:59;;;;;;;9.13;8.30;;;9.70;99.90;;;;;;4916252;29;20674;-73
2023/04/12 09:05:29;;;;;;;8.10;7.47;;;9.80;99.90;;;;;;4915911;29;20258;-73
2023/04/12 09:07:55;;;;;;;7.73;7.03;;;9.80;99.90;;;;;;4899369;29;20618;-73
2023/04/12 09:10:35;;;;;;;7.87;7.23;;;9.80;99.90;;;;;;4898641;29;20182;-73
2023/04/12 09:13:05;;;;;;;8.17;7.43;;;9.80;99.90;;;;;;4915746;29;20191;-73
2023/04/12 09:15:33;;;;;;;8.37;7.20;;;9.80;99.90;;;;;;4931020;23;20326;-73
2023/04/12 09:18:17;;;;;;;8.37;7.77;;;9.90;99.90;;;;;;4917882;29;20578;-74
2023/04/12 09:20:43;;;;;;;8.83;7.97;;;9.90;99.90;;;;;;4934456;29;20655;-73
2023/04/12 09:23:20;;;;;;;10.83;9.73;;;9.90;99.90;;;;;;4917133;29;20182;-73
2023/04/12 09:25:48;;;;;;;7.77;7.17;;;9.90;99.90;;;;;;4903539;29;20218;-74
2023/04/12 09:28:21;;;;;;;9.20;8.50;;;10.00;99.90;;;;;;4915705;29;20183;-74
2023/04/12 09:30:50;;;;;;;8.53;7.73;;;10.10;99.90;;;;;;4915952;29;20274;-74
2023/04/12 09:33:21;;;;;;;9.37;8.67;;;10.20;99.90;;;;;;4898735;29;20183;-75
2023/04/12 09:35:47;;;;;;;11.70;9.60;;;10.20;99.90;;;;;;4915747;29;20206;-75
2023/04/12 09:38:13;;;;;;;10.00;9.07;;;10.40;99.90;;;;;;4915667;29;20183;-74
2023/04/12 09:40:39;;;;;;;7.30;6.70;;;10.40;99.90;;;;;;4913592;29;20667;-74
2023/04/12 09:43:06;;;;;;;7.97;7.23;;;10.50;99.90;;;;;;4915573;29;20183;-75
2023/04/12 09:45:39;;;;;;;7.20;6.60;;;10.50;99.90;;;;;;4915060;29;20218;-74
2023/04/12 09:48:06;;;;;;;10.17;6.90;;;10.70;99.90;;;;;;4898543;29;20186;-74
2023/04/12 09:50:32;;;;;;;14.87;13.63;;;10.70;99.90;;;;;;4898133;29;20179;-74
2023/04/12 09:53:00;;;;;;;18.20;16.73;;;10.70;99.90;;;;;;4909215;29;20186;-75
2023/04/12 09:55:28;;;;;;;12.57;11.67;;;10.70;99.90;;;;;;4900589;29;20211;-74
2023/04/12 09:57:55;;;;;;;16.30;15.23;;;10.70;99.90;;;;;;4897843;29;20188;-73
2023/04/12 10:00:25;;;;;;;13.17;12.30;;;10.70;99.90;;;;;;4912238;29;20277;-74
2023/04/12 10:02:53;;;;;;;7.83;7.03;;;10.80;99.90;;;;;;4916751;29;20225;-74
2023/04/12 10:05:21;;;;;;;9.13;8.40;;;10.90;99.90;;;;;;4933698;29;20709;-74
2023/04/12 10:07:48;;;;;;;18.83;17.57;;;10.80;99.90;;;;;;4933535;29;20193;-75
2023/04/12 10:10:15;;;;;;;12.23;11.47;;;10.90;99.90;;;;;;4916284;29;20186;-74
2023/04/12 10:12:44;;;;;;;12.03;11.23;;;10.90;99.90;;;;;;4916446;29;20186;-76
2023/04/12 10:15:12;;;;;;;10.43;9.73;;;11.00;99.90;;;;;;4914429;29;20219;-75
2023/04/12 10:17:45;;;;;;;24.50;23.20;;;11.00;99.90;;;;;;4914669;29;20194;-74
2023/04/12 10:20:12;;;;;;;18.83;17.63;;;10.90;99.90;;;;;;4897683;29;20218;-74
2023/04/12 10:22:42;;;;;;;13.43;12.63;;;11.00;99.90;;;;;;4914343;29;20201;-76
2023/04/12 10:25:14;;;;;;;93.57;88.93;;;11.10;99.90;;;;;;4913836;29;20245;-73
2023/04/12 10:27:42;;;;;;;56.80;53.90;;;11.10;99.90;;;;;;4915006;29;20266;-73
2023/04/12 10:30:19;;;;;;;21.60;20.27;;;11.10;99.90;;;;;;4914163;29;20226;-76
2023/04/12 10:32:45;;;;;;;18.63;17.57;;;11.20;99.90;;;;;;4897690;29;20234;-73
2023/04/12 10:35:11;;;;;;;11.43;10.73;;;11.40;99.90;;;;;;4914537;29;20202;-74
2023/04/12 10:38:03;;;;;;;64.30;60.97;;;11.50;99.90;;;;;;4894509;29;20255;-76
2023/04/12 10:40:32;;;;;;;19.37;18.20;;;11.40;99.90;;;;;;4920374;29;20187;-74
2023/04/12 10:43:17;;;;;;;43.40;40.93;;;11.30;99.90;;;;;;4913169;29;20198;-74
2023/04/12 10:45:44;;;;;;;54.03;51.13;;;11.50;99.90;;;;;;4914597;29;20219;-76
2023/04/12 10:48:47;;;;;;;73.87;69.87;;;11.60;99.90;;;;;;4914574;29;20175;-76
2023/04/12 10:51:29;;;;;;;13.63;12.40;;;11.70;99.90;;;;;;4914609;29;20262;-75
2023/04/12 10:54:07;;;;;;;11.03;10.13;;;11.80;99.90;;;;;;4914535;29;20182;-75
2023/04/12 10:56:40;;;;;;;7.63;7.03;;;11.90;99.90;;;;;;4913409;29;20182;-75
2023/04/12 10:59:07;;;;;;;5.80;5.50;;;12.00;99.90;;;;;;4914273;29;20183;-75
2023/04/12 11:01:34;;;;;;;16.00;14.90;;;12.10;99.90;;;;;;4913196;29;20179;-75
2023/04/12 11:04:18;;;;;;;24.73;23.00;;;12.20;99.90;;;;;;4914311;29;20215;-75
2023/04/12 11:06:58;;;;;;;8.90;8.10;;;12.40;99.90;;;;;;4914497;29;20652;-75
2023/04/12 11:09:26;;;;;;;15.33;13.93;;;12.50;99.90;;;;;;4914444;29;20197;-75
2023/04/12 11:12:03;;;;;;;5.93;5.33;;;12.70;99.90;;;;;;4913372;29;20676;-75
2023/04/12 11:14:34;;;;;;;10.27;9.30;;;12.70;99.90;;;;;;4913207;29;20233;-75
2023/04/12 11:17:12;;;;;;;7.67;7.07;;;12.80;99.90;;;;;;4914403;29;20187;-75
2023/04/12 11:19:43;;;;;;;10.00;9.27;;;13.00;99.90;;;;;;4913942;29;20245;-75
2023/04/12 11:22:14;;;;;;;6.00;5.50;;;13.10;99.90;;;;;;4914544;29;20278;-75
2023/04/12 11:24:42;;;;;;;9.37;8.73;;;13.40;99.90;;;;;;4914287;29;20215;-75
2023/04/12 11:27:09;;;;;;;7.73;7.33;;;13.60;99.90;;;;;;4914529;29;20205;-75
2023/04/12 11:29:35;;;;;;;23.97;10.83;;;14.00;99.90;;;;;;4914581;29;20274;-73
2023/04/12 11:32:08;;;;;;;7.37;6.57;;;14.20;99.90;;;;;;4901993;29;20287;-73
2023/04/12 11:34:35;;;;;;;8.17;7.47;;;14.60;99.90;;;;;;4913911;29;20579;-73
2023/04/12 11:37:09;;;;;;;6.63;6.00;;;14.80;99.90;;;;;;4922438;29;20191;-73
2023/04/12 11:39:37;;;;;;;9.17;8.57;;;14.80;99.90;;;;;;4936183;29;20261;-73
2023/04/12 11:42:03;;;;;;;8.43;7.90;;;14.90;99.90;;;;;;4936336;29;20217;-73
2023/04/12 11:44:31;;;;;;;13.47;12.43;;;14.80;99.90;;;;;;4935854;29;20698;-73
2023/04/12 11:46:58;;;;;;;9.90;8.90;;;14.80;99.90;;;;;;4936388;29;20599;-73
2023/04/12 11:49:24;;;;;;;7.23;6.60;;;14.80;99.90;;;;;;4927676;29;20183;-73
2023/04/12 11:52:01;;;;;;;17.93;16.70;;;14.80;99.90;;;;;;4925318;29;20183;-73
2023/04/12 11:54:30;;;;;;;11.47;10.93;;;14.70;99.90;;;;;;4922017;29;20579;-73
2023/04/12 11:56:57;;;;;;;9.60;9.00;;;14.30;99.90;;;;;;4900749;29;20551;-73
2023/04/12 11:59:34;;;;;;;10.17;9.50;;;14.10;99.90;;;;;;4917112;29;20190;-73
2023/04/12 12:02:03;;;;;;;10.93;10.37;;;14.20;99.90;;;;;;4917169;29;20187;-73
2023/04/12 12:04:30;;;;;;;11.83;10.93;;;14.30;99.90;;;;;;4917217;29;20215;-73
2023/04/12 12:06:57;;;;;;;8.93;8.33;;;14.30;99.90;;;;;;4917628;29;20565;-73
2023/04/12 12:09:24;;;;;;;8.07;7.50;;;14.20;99.90;;;;;;4908557;29;20191;-73
2023/04/12 12:11:51;;;;;;;10.47;9.87;;;14.10;99.90;;;;;;4919534;29;20217;-73
2023/04/12 12:14:23;;;;;;;6.53;6.23;;;14.20;99.90;;;;;;4915164;29;20195;-73
2023/04/12 12:16:53;;;;;;;6.37;6.07;;;14.30;99.90;;;;;;4915995;29;20571;-73
2023/04/12 12:19:35;;;;;;;4.70;4.50;;;14.30;99.90;;;;;;4916615;29;20195;-73
2023/04/12 12:22:12;;;;;;;5.03;4.73;;;14.30;99.90;;;;;;4917352;29;20550;-73
2023/04/12 12:24:49;;;;;;;5.47;5.07;;;14.20;99.90;;;;;;4916668;29;20219;-73
2023/04/12 12:27:20;;;;;;;6.10;5.70;;;14.40;99.90;;;;;;4916946;29;20226;-74
2023/04/12 12:29:53;;;;;;;4.70;4.50;;;14.60;99.90;;;;;;4916433;29;20217;-73
2023/04/12 12:32:22;;;;;;;5.37;5.17;;;14.80;99.90;;;;;;4916778;29;20532;-73
2023/04/12 12:34:55;;;;;;;5.53;5.23;;;14.90;99.90;;;;;;4915654;29;20582;-73
2023/04/12 12:37:26;;;;;;;4.90;4.70;;;15.00;99.90;;;;;;4916758;29;20274;-74
2023/04/12 12:40:06;;;;;;;3.90;3.70;;;15.10;99.90;;;;;;4916159;29;20651;-73
2023/04/12 12:42:33;;;;;;;4.80;4.43;;;15.20;99.90;;;;;;4916618;29;20269;-73
2023/04/12 12:44:59;;;;;;;6.70;6.40;;;15.40;99.90;;;;;;4916284;29;20218;-73
2023/04/12 12:47:25;;;;;;;7.43;6.97;;;15.40;99.90;;;;;;4916309;29;20186;-73
2023/04/12 12:49:50;;;;;;;7.60;7.20;;;15.40;99.90;;;;;;4916014;29;20227;-73
2023/04/12 12:52:16;;;;;;;5.13;4.93;;;15.50;99.90;;;;;;4916469;29;20199;-73
2023/04/12 12:54:42;;;;;;;7.00;6.53;;;15.50;99.90;;;;;;4915071;29;20210;-73
2023/04/12 12:57:08;;;;;;;5.93;5.63;;;15.40;99.90;;;;;;4916393;29;20730;-73
2023/04/12 12:59:33;;;;;;;5.03;4.63;;;15.60;99.90;;;;;;4915788;29;20570;-73
2023/04/12 13:01:59;;;;;;;9.47;9.00;;;15.80;99.90;;;;;;4916178;29;20197;-73
2023/04/12 13:04:25;;;;;;;19.70;18.70;;;15.80;99.90;;;;;;4916035;29;20219;-73
2023/04/12 13:06:51;;;;;;;24.73;23.63;;;16.00;99.90;;;;;;4914880;29;20183;-73
2023/04/12 13:09:17;;;;;;;21.43;20.43;;;16.10;99.90;;;;;;4915822;29;20183;-73
2023/04/12 13:11:42;;;;;;;18.43;17.63;;;16.10;99.90;;;;;;4916150;29;20194;-73
2023/04/12 13:14:08;;;;;;;20.17;19.27;;;16.10;99.90;;;;;;4915774;29;20640;-73
2023/04/12 13:16:35;;;;;;;20.77;19.83;;;15.80;99.90;;;;;;4916240;29;20337;-73
2023/04/12 13:19:00;;;;;;;18.53;17.63;;;15.80;99.90;;;;;;4915794;29;20336;-73
2023/04/12 13:21:26;;;;;;;15.63;14.93;;;15.60;99.90;;;;;;4915731;29;20722;-73
2023/04/12 13:23:52;;;;;;;15.73;14.73;;;15.60;99.90;;;;;;4915988;29;20235;-73
2023/04/12 13:26:17;;;;;;;15.93;15.23;;;15.70;99.90;;;;;;4915982;29;20302;-73
2023/04/12 13:28:43;;;;;;;15.33;14.63;;;15.70;99.90;;;;;;4915250;29;20183;-73
2023/04/12 13:31:09;;;;;;;16.90;16.10;;;15.90;99.90;;;;;;4915687;29;20270;-74
2023/04/12 13:33:35;;;;;;;16.57;15.87;;;15.80;99.90;;;;;;4914388;29;20706;-73
2023/04/12 13:36:00;;;;;;;15.87;14.97;;;15.70;99.90;;;;;;4914426;29;20211;-74
2023/04/12 13:38:26;;;;;;;14.93;14.23;;;15.60;99.90;;;;;;4914201;29;20186;-73
2023/04/12 13:40:52;;;;;;;11.90;11.40;;;15.50;99.90;;;;;;4915633;29;20568;-73
2023/04/12 13:43:18;;;;;;;14.03;13.43;;;15.40;99.90;;;;;;4920065;29;20636;-73
2023/04/12 13:45:44;;;;;;;13.53;12.83;;;15.40;99.90;;;;;;4930840;29;20219;-73
2023/04/12 13:48:10;;;;;;;14.73;14.13;;;15.40;99.90;;;;;;4927280;29;20186;-73
2023/04/12 13:50:35;;;;;;;12.13;11.50;;;15.40;99.90;;;;;;4923718;29;20210;-73
2023/04/12 13:53:01;;;;;;;13.60;12.90;;;15.50;99.90;;;;;;4920418;29;20628;-73
2023/04/12 13:55:27;;;;;;;21.03;20.03;;;15.70;99.90;;;;;;4914151;29;20218;-73
2023/04/12 13:57:53;;;;;;;36.87;35.10;;;15.90;99.90;;;;;;4915111;29;20675;-73
2023/04/12 14:00:19;;;;;;;35.90;34.17;;;15.80;99.90;;;;;;4914429;29;20190;-73
2023/04/12 14:02:45;;;;;;;23.80;22.60;;;15.70;99.90;;;;;;4914131;29;20190;-73
2023/04/12 14:05:10;;;;;;;18.40;17.60;;;15.60;99.90;;;;;;4914992;29;20223;-73
2023/04/12 14:07:36;;;;;;;26.17;25.00;;;15.60;99.90;;;;;;4908858;29;20183;-73
2023/04/12 14:10:02;;;;;;;25.60;24.23;;;15.50;99.90;;;;;;4900060;29;20301;-73
2023/04/12 14:12:28;;;;;;;30.77;29.33;;;15.60;99.90;;;;;;4894593;29;20207;-73
2023/04/12 14:14:54;;;;;;;42.13;40.00;;;15.60;99.90;;;;;;4920787;29;20222;-73
2023/04/12 14:17:20;;;;;;;24.43;23.37;;;15.60;99.90;;;;;;4933714;29;20178;-73
2023/04/12 14:19:46;;;;;;;31.23;29.73;;;15.60;99.90;;;;;;4916121;29;20277;-73
2023/04/12 14:22:11;;;;;;;23.20;22.13;;;15.40;99.90;;;;;;4933689;29;20189;-73
2023/04/12 14:24:38;;;;;;;21.50;20.57;;;15.40;99.90;;;;;;4933363;29;20226;-73
2023/04/12 14:27:04;;;;;;;19.73;18.73;;;15.30;99.90;;;;;;4933611;29;20186;-73
2023/04/12 14:29:30;;;;;;;18.60;17.73;;;15.30;99.90;;;;;;4932536;29;20662;-73
2023/04/12 14:31:56;;;;;;;11.50;10.80;;;15.20;99.90;;;;;;4933512;29;20193;-74
2023/04/12 14:34:22;;;;;;;11.67;11.13;;;15.30;99.90;;;;;;4924572;29;20211;-74
2023/04/12 14:36:47;;;;;;;35.70;34.07;;;15.60;99.90;;;;;;4914504;29;20197;-74
2023/04/12 14:39:13;;;;;;;33.20;31.60;;;16.10;99.90;;;;;;4897023;29;20326;-74
2023/04/12 14:41:39;;;;;;;16.60;15.80;;;16.30;99.90;;;;;;4914321;29;20225;-74
2023/04/12 14:44:05;;;;;;;10.93;10.43;;;16.90;99.90;;;;;;4897260;29;20222;-74
2023/04/12 14:46:31;;;;;;;9.93;9.23;;;17.20;99.90;;;;;;4914076;29;20230;-74
2023/04/12 14:48:59;;;;;;;8.20;7.80;;;16.80;99.90;;;;;;4914055;29;20191;-74
2023/04/12 14:51:26;;;;;;;9.23;8.83;;;16.60;99.90;;;;;;4914327;29;20194;-74
2023/04/12 14:53:52;;;;;;;8.60;8.27;;;16.50;99.90;;;;;;4913943;29;20560;-73
2023/04/12 14:56:19;;;;;;;9.90;9.40;;;16.50;99.90;;;;;;4914241;29;20203;-74
2023/04/12 14:58:45;;;;;;;8.77;8.27;;;16.60;99.90;;;;;;4914188;29;20194;-74
2023/04/12 15:01:12;;;;;;;8.07;7.77;;;16.40;99.90;;;;;;4914214;29;20191;-74
2023/04/12 15:03:40;;;;;;;8.07;7.77;;;16.20;99.90;;;;;;4910358;29;20186;-74
2023/04/12 15:06:07;;;;;;;9.00;8.60;;;15.90;99.90;;;;;;4933518;29;20305;-74
2023/04/12 15:08:40;;;;;;;9.40;9.00;;;15.80;99.90;;;;;;4932411;29;20217;-73
2023/04/12 15:11:08;;;;;;;11.67;11.10;;;15.70;99.90;;;;;;4916372;29;20183;-74
2023/04/12 15:13:40;;;;;;;10.63;10.13;;;15.90;99.90;;;;;;4919320;29;20183;-74
2023/04/12 15:16:11;;;;;;;10.17;9.77;;;16.00;99.90;;;;;;4957451;23;20229;-71
2023/04/12 15:18:38;;;;;;;10.07;9.57;;;15.90;99.90;;;;;;4918230;29;21014;-71
2023/04/12 15:21:11;;;;;;;9.83;9.43;;;15.90;99.90;;;;;;4919960;29;20179;-71
2023/04/12 15:23:40;;;;;;;10.77;10.17;;;15.80;99.90;;;;;;4919513;29;20182;-71
2023/04/12 15:26:07;;;;;;;9.43;9.07;;;15.70;99.90;;;;;;4922508;29;20338;-71
2023/04/12 15:28:34;;;;;;;11.70;10.97;;;15.60;99.90;;;;;;4917445;29;20238;-71
2023/04/12 15:31:00;;;;;;;13.17;12.60;;;15.50;99.90;;;;;;4900698;29;20266;-71
2023/04/12 15:33:26;;;;;;;10.60;10.00;;;15.40;99.90;;;;;;4917730;29;20680;-71
2023/04/12 15:35:56;;;;;;;11.10;10.60;;;15.30;99.90;;;;;;4900580;29;20211;-71
2023/04/12 15:38:24;;;;;;;16.03;15.23;;;15.20;99.90;;;;;;4917164;29;20191;-71
2023/04/12 15:40:57;;;;;;;28.60;27.10;;;15.20;99.90;;;;;;4917330;29;20548;-77
2023/04/12 15:43:24;;;;;;;11.10;10.47;;;15.10;99.90;;;;;;4900690;29;20187;-71